Cape May, NJ

8:08 PM EDT on September 21, 2014 (GMT -0400)
Townbank | Change Station
CLOSE
Current Station
Personal Weather Station
Location: Cape May, NJ
Elevation: 30 ft
Nearby Weather Stations

Elev 30 ft 38.98 °N, 74.94 °W | Updated 3 seconds ago

Clear
Clear
70.7 °F
Feels Like 70.7 °F
N
0.0
Wind Variable Wind from SW
Gusts 0.0 mph

Today
High -- | Low -- °F
--% Chance of Precip.
Yesterday
High -- | Low -- °F
Precip. -- in
6:46 AM 6:58 PM
Waning Crescent, 5% visible
Pressure 29.68 in
Visibility 10.0 miles
Clouds Clear
Dew Point 68 °F
Humidity 91%
Rainfall 0.00 in
Snow Depth Not available.
UV 0 out of 12
Pollen 3.80 out of 12
Air Quality Not available.
Flu Activity Not available.
METAR KWWD 212355Z AUTO 20003KT 10SM CLR 20/17 A2968 RMK AO1 10250 20200 402500190 52003

More Conditions Fewer Conditions

Pressure 29.68 in
Visibility 10.0 miles
Clouds Clear
Dew Point 68 °F
Humidity 91%
Rainfall 0.00 in
Snow Depth Not available.
UV 0 out of 12
Pollen 3.80 out of 12
Air Quality Not available.
Flu Activity Not available.
METAR KWWD 212355Z AUTO 20003KT 10SM CLR 20/17 A2968 RMK AO1 10250 20200 402500190 52003

More Conditions Fewer Conditions

10-Day Weather Forecast

Almanac

Astronomy

Sep. 21, 2014 Rise Set
Actual Time 6:46 AM EDT 6:58 PM EDT
Civil Twilight 6:19 AM EDT 7:24 PM EDT
Nautical Twilight 5:48 AM EDT 7:56 PM EDT
Astronomical Twilight 5:16 AM EDT 8:27 PM EDT
Moon 4:18 AM EDT (9/21) 5:32 PM EDT (9/21)
Length of Visible Light 13h 05m
Length of Day
12h 11m
Tomorrow will be 2m 30s shorter.
Waning Crescent, 5% of the Moon is Illuminated
Today
Waning Crescent
Sep 24
New
Oct 1
First Quarter
Oct 8
Full
Oct 15
Last Quarter

Today's Extremes

State Highs State Lows

Community

WunderPhotos

Upload Photos

1,755,309 photos uploaded!

WunderBlogs® & News

Nearby

Snow Depth

Station Depth Elevation
No new snow has been reported.

Earthquake Activity

City Distance Mag. Time & Date
No recent earthquake activity has been reported nearby.
Minimum magnitude displayed is 2.5.

Coastal Water Temperatures

Place Temperature
Cape May, NJ 75.9 °F
Atlantic City, NJ 71.1 °F
Lewes, DE 72.0 °F

Nearby Weather Stations